sensor_id;sensor_type;location;lat;lon;timestamp;pressure;altitude;pressure_sealevel;temperature;humidity
64253;BME280;50592;52.958;-7.470;2023-03-25T00:01:15;98389.94;;;7.53;100.00
64253;BME280;50592;52.958;-7.470;2023-03-25T00:03:42;98398.34;;;7.49;100.00
64253;BME280;50592;52.958;-7.470;2023-03-25T00:06:13;98400.00;;;7.50;100.00
64253;BME280;50592;52.958;-7.470;2023-03-25T00:08:39;98414.31;;;7.47;100.00
64253;BME280;50592;52.958;-7.470;2023-03-25T00:11:09;98411.16;;;7.52;100.00
64253;BME280;50592;52.958;-7.470;2023-03-25T00:13:39;98428.75;;;7.51;100.00
64253;BME280;50592;52.958;-7.470;2023-03-25T00:16:09;98427.09;;;7.50;100.00
64253;BME280;50592;52.958;-7.470;2023-03-25T00:18:39;98429.56;;;7.52;100.00
64253;BME280;50592;52.958;-7.470;2023-03-25T00:21:07;98433.53;;;7.48;100.00
64253;BME280;50592;52.958;-7.470;2023-03-25T00:23:40;98425.66;;;7.48;100.00
64253;BME280;50592;52.958;-7.470;2023-03-25T00:26:10;98444.88;;;7.48;100.00
64253;BME280;50592;52.958;-7.470;2023-03-25T00:28:38;98440.94;;;7.44;100.00
64253;BME280;50592;52.958;-7.470;2023-03-25T00:31:11;98457.53;;;7.44;100.00
64253;BME280;50592;52.958;-7.470;2023-03-25T00:33:38;98460.03;;;7.38;100.00
64253;BME280;50592;52.958;-7.470;2023-03-25T00:36:09;98466.59;;;7.42;100.00
64253;BME280;50592;52.958;-7.470;2023-03-25T00:38:39;98473.00;;;7.39;100.00
64253;BME280;50592;52.958;-7.470;2023-03-25T00:43:37;98484.00;;;7.43;100.00
64253;BME280;50592;52.958;-7.470;2023-03-25T00:46:06;98488.25;;;7.44;100.00
64253;BME280;50592;52.958;-7.470;2023-03-25T00:48:32;98472.66;;;7.42;100.00
64253;BME280;50592;52.958;-7.470;2023-03-25T00:51:01;98483.00;;;7.44;100.00
64253;BME280;50592;52.958;-7.470;2023-03-25T00:53:33;98488.44;;;7.42;100.00
64253;BME280;50592;52.958;-7.470;2023-03-25T00:56:03;98493.84;;;7.41;100.00
64253;BME280;50592;52.958;-7.470;2023-03-25T00:58:30;98497.81;;;7.37;100.00
64253;BME280;50592;52.958;-7.470;2023-03-25T01:01:00;98504.53;;;7.39;100.00
64253;BME280;50592;52.958;-7.470;2023-03-25T01:03:30;98505.19;;;7.41;100.00
64253;BME280;50592;52.958;-7.470;2023-03-25T01:06:00;98507.81;;;7.41;100.00
64253;BME280;50592;52.958;-7.470;2023-03-25T01:08:30;98514.88;;;7.41;100.00
64253;BME280;50592;52.958;-7.470;2023-03-25T01:11:00;98524.44;;;7.42;100.00
64253;BME280;50592;52.958;-7.470;2023-03-25T01:13:27;98527.06;;;7.42;100.00
64253;BME280;50592;52.958;-7.470;2023-03-25T01:15:55;98529.50;;;7.43;100.00
64253;BME280;50592;52.958;-7.470;2023-03-25T01:18:22;98530.66;;;7.41;100.00
64253;BME280;50592;52.958;-7.470;2023-03-25T01:20:52;98528.69;;;7.43;100.00
64253;BME280;50592;52.958;-7.470;2023-03-25T01:23:19;98529.03;;;7.40;100.00
64253;BME280;50592;52.958;-7.470;2023-03-25T01:25:49;98541.16;;;7.41;100.00
64253;BME280;50592;52.958;-7.470;2023-03-25T01:28:18;98538.88;;;7.38;100.00
64253;BME280;50592;52.958;-7.470;2023-03-25T01:30:48;98548.59;;;7.37;100.00
64253;BME280;50592;52.958;-7.470;2023-03-25T01:33:18;98553.38;;;7.34;100.00
64253;BME280;50592;52.958;-7.470;2023-03-25T01:35:48;98568.97;;;7.35;100.00
64253;BME280;50592;52.958;-7.470;2023-03-25T01:38:18;98566.50;;;7.34;100.00
64253;BME280;50592;52.958;-7.470;2023-03-25T01:40:45;98568.47;;;7.31;100.00
64253;BME280;50592;52.958;-7.470;2023-03-25T01:43:15;98575.41;;;7.32;100.00
64253;BME280;50592;52.958;-7.470;2023-03-25T01:45:46;98574.41;;;7.34;100.00
64253;BME280;50592;52.958;-7.470;2023-03-25T01:48:32;98589.16;;;7.35;100.00
64253;BME280;50592;52.958;-7.470;2023-03-25T01:51:11;98593.78;;;7.32;100.00
64253;BME280;50592;52.958;-7.470;2023-03-25T01:53:44;98601.00;;;7.30;100.00
64253;BME280;50592;52.958;-7.470;2023-03-25T01:56:17;98615.13;;;7.29;100.00
64253;BME280;50592;52.958;-7.470;2023-03-25T01:58:50;98616.94;;;7.29;100.00
64253;BME280;50592;52.958;-7.470;2023-03-25T02:01:21;98618.09;;;7.26;100.00
64253;BME280;50592;52.958;-7.470;2023-03-25T02:03:54;98628.59;;;7.26;100.00
64253;BME280;50592;52.958;-7.470;2023-03-25T02:06:40;98629.75;;;7.24;100.00
64253;BME280;50592;52.958;-7.470;2023-03-25T02:09:14;98629.09;;;7.22;100.00
64253;BME280;50592;52.958;-7.470;2023-03-25T02:11:45;98629.28;;;7.20;100.00
64253;BME280;50592;52.958;-7.470;2023-03-25T02:14:19;98637.31;;;7.18;100.00
64253;BME280;50592;52.958;-7.470;2023-03-25T02:17:13;98630.59;;;7.16;100.00
64253;BME280;50592;52.958;-7.470;2023-03-25T02:28:24;98634.41;;;6.97;100.00
64253;BME280;50592;52.958;-7.470;2023-03-25T02:39:47;98658.03;;;6.88;100.00
64253;BME280;50592;52.958;-7.470;2023-03-25T02:42:40;98664.78;;;6.91;100.00
64253;BME280;50592;52.958;-7.470;2023-03-25T02:45:36;98671.50;;;6.93;100.00
64253;BME280;50592;52.958;-7.470;2023-03-25T02:48:11;98680.84;;;6.96;100.00
64253;BME280;50592;52.958;-7.470;2023-03-25T02:50:55;98678.41;;;7.03;100.00
64253;BME280;50592;52.958;-7.470;2023-03-25T02:53:27;98680.34;;;7.01;100.00
64253;BME280;50592;52.958;-7.470;2023-03-25T02:56:05;98685.63;;;7.01;100.00
64253;BME280;50592;52.958;-7.470;2023-03-25T02:58:38;98688.91;;;7.03;100.00
64253;BME280;50592;52.958;-7.470;2023-03-25T03:01:09;98690.06;;;7.00;100.00
64253;BME280;50592;52.958;-7.470;2023-03-25T03:03:42;98697.94;;;7.00;100.00
64253;BME280;50592;52.958;-7.470;2023-03-25T03:06:15;98697.13;;;7.00;100.00
64253;BME280;50592;52.958;-7.470;2023-03-25T03:23:33;98726.84;;;6.92;100.00
64253;BME280;50592;52.958;-7.470;2023-03-25T03:28:48;98729.63;;;6.90;100.00
64253;BME280;50592;52.958;-7.470;2023-03-25T03:31:24;98726.50;;;6.95;100.00
64253;BME280;50592;52.958;-7.470;2023-03-25T03:34:00;98738.00;;;6.94;100.00
64253;BME280;50592;52.958;-7.470;2023-03-25T03:36:38;98731.75;;;6.95;100.00
64253;BME280;50592;52.958;-7.470;2023-03-25T03:39:14;98748.97;;;6.98;100.00
64253;BME280;50592;52.958;-7.470;2023-03-25T03:41:51;98742.09;;;6.97;100.00
64253;BME280;50592;52.958;-7.470;2023-03-25T03:44:28;98738.31;;;6.99;100.00
64253;BME280;50592;52.958;-7.470;2023-03-25T03:47:10;98750.47;;;7.00;100.00
64253;BME280;50592;52.958;-7.470;2023-03-25T03:50:08;98764.28;;;7.02;100.00
64253;BME280;50592;52.958;-7.470;2023-03-25T03:52:42;98760.16;;;7.00;100.00
64253;BME280;50592;52.958;-7.470;2023-03-25T03:55:19;98763.28;;;7.03;100.00
64253;BME280;50592;52.958;-7.470;2023-03-25T03:57:53;98771.34;;;7.02;100.00
64253;BME280;50592;52.958;-7.470;2023-03-25T04:00:29;98768.22;;;7.06;100.00
64253;BME280;50592;52.958;-7.470;2023-03-25T04:03:14;98771.81;;;7.14;100.00
64253;BME280;50592;52.958;-7.470;2023-03-25T04:05:53;98768.06;;;7.16;100.00
64253;BME280;50592;52.958;-7.470;2023-03-25T04:08:35;98766.91;;;7.19;100.00
64253;BME280;50592;52.958;-7.470;2023-03-25T04:11:11;98772.84;;;7.21;100.00
64253;BME280;50592;52.958;-7.470;2023-03-25T04:13:46;98758.69;;;7.22;100.00
64253;BME280;50592;52.958;-7.470;2023-03-25T04:16:18;98776.09;;;7.23;100.00
64253;BME280;50592;52.958;-7.470;2023-03-25T04:18:49;98773.47;;;7.23;100.00
64253;BME280;50592;52.958;-7.470;2023-03-25T04:21:21;98776.09;;;7.23;100.00
64253;BME280;50592;52.958;-7.470;2023-03-25T04:23:50;98787.59;;;7.22;100.00
64253;BME280;50592;52.958;-7.470;2023-03-25T04:26:20;98789.41;;;7.22;100.00
64253;BME280;50592;52.958;-7.470;2023-03-25T04:28:50;98802.22;;;7.25;100.00
64253;BME280;50592;52.958;-7.470;2023-03-25T04:31:20;98806.97;;;7.29;100.00
64253;BME280;50592;52.958;-7.470;2023-03-25T04:33:47;98800.75;;;7.30;100.00
64253;BME280;50592;52.958;-7.470;2023-03-25T04:36:18;98810.78;;;7.35;100.00
64253;BME280;50592;52.958;-7.470;2023-03-25T04:38:48;98810.44;;;7.38;100.00
64253;BME280;50592;52.958;-7.470;2023-03-25T04:41:23;98819.47;;;7.44;100.00
64253;BME280;50592;52.958;-7.470;2023-03-25T04:43:53;98829.97;;;7.44;100.00
64253;BME280;50592;52.958;-7.470;2023-03-25T04:46:23;98825.22;;;7.48;100.00
64253;BME280;50592;52.958;-7.470;2023-03-25T04:48:50;98822.09;;;7.44;100.00
64253;BME280;50592;52.958;-7.470;2023-03-25T04:51:21;98830.50;;;7.48;100.00
64253;BME280;50592;52.958;-7.470;2023-03-25T04:53:51;98829.66;;;7.47;100.00
64253;BME280;50592;52.958;-7.470;2023-03-25T04:56:21;98828.84;;;7.47;100.00
64253;BME280;50592;52.958;-7.470;2023-03-25T04:58:50;98836.06;;;7.44;100.00
64253;BME280;50592;52.958;-7.470;2023-03-25T05:01:24;98835.25;;;7.44;100.00
64253;BME280;50592;52.958;-7.470;2023-03-25T05:04:00;98840.19;;;7.39;100.00
64253;BME280;50592;52.958;-7.470;2023-03-25T05:06:35;98843.63;;;7.31;100.00
64253;BME280;50592;52.958;-7.470;2023-03-25T05:09:11;98845.59;;;7.29;100.00
64253;BME280;50592;52.958;-7.470;2023-03-25T05:11:41;98856.09;;;7.20;100.00
64253;BME280;50592;52.958;-7.470;2023-03-25T05:14:14;98858.72;;;7.20;100.00
64253;BME280;50592;52.958;-7.470;2023-03-25T05:16:41;98864.13;;;7.19;100.00
64253;BME280;50592;52.958;-7.470;2023-03-25T05:19:11;98875.16;;;7.23;100.00
64253;BME280;50592;52.958;-7.470;2023-03-25T05:21:39;98874.00;;;7.25;100.00
64253;BME280;50592;52.958;-7.470;2023-03-25T05:24:11;98873.69;;;7.28;100.00
64253;BME280;50592;52.958;-7.470;2023-03-25T05:26:40;98880.56;;;7.29;100.00
64253;BME280;50592;52.958;-7.470;2023-03-25T05:29:11;98895.22;;;7.32;100.00
64253;BME280;50592;52.958;-7.470;2023-03-25T05:31:43;98891.59;;;7.33;100.00
64253;BME280;50592;52.958;-7.470;2023-03-25T05:34:14;98891.75;;;7.31;100.00
64253;BME280;50592;52.958;-7.470;2023-03-25T05:36:44;98892.41;;;7.34;100.00
64253;BME280;50592;52.958;-7.470;2023-03-25T05:39:15;98901.47;;;7.31;100.00
64253;BME280;50592;52.958;-7.470;2023-03-25T05:41:45;98909.34;;;7.31;100.00
64253;BME280;50592;52.958;-7.470;2023-03-25T05:44:15;98908.66;;;7.29;100.00
64253;BME280;50592;52.958;-7.470;2023-03-25T05:46:46;98911.63;;;7.26;100.00
64253;BME280;50592;52.958;-7.470;2023-03-25T05:49:16;98922.94;;;7.26;100.00
64253;BME280;50592;52.958;-7.470;2023-03-25T05:51:45;98923.09;;;7.25;100.00
64253;BME280;50592;52.958;-7.470;2023-03-25T05:54:17;98940.84;;;7.23;100.00
64253;BME280;50592;52.958;-7.470;2023-03-25T05:56:46;98946.44;;;7.19;100.00
64253;BME280;50592;52.958;-7.470;2023-03-25T05:59:16;98950.84;;;7.19;100.00
64253;BME280;50592;52.958;-7.470;2023-03-25T06:01:48;98956.28;;;7.17;100.00
64253;BME280;50592;52.958;-7.470;2023-03-25T06:04:17;98956.09;;;7.19;100.00
64253;BME280;50592;52.958;-7.470;2023-03-25T06:06:49;98954.16;;;7.21;100.00
64253;BME280;50592;52.958;-7.470;2023-03-25T06:09:15;98954.47;;;7.18;100.00
64253;BME280;50592;52.958;-7.470;2023-03-25T06:11:46;98955.94;;;7.20;100.00
64253;BME280;50592;52.958;-7.470;2023-03-25T06:14:18;98965.16;;;7.16;100.00
64253;BME280;50592;52.958;-7.470;2023-03-25T06:16:52;98966.09;;;7.15;100.00
64253;BME280;50592;52.958;-7.470;2023-03-25T06:19:24;98972.50;;;7.13;100.00
64253;BME280;50592;52.958;-7.470;2023-03-25T06:21:54;98977.59;;;7.14;100.00
64253;BME280;50592;52.958;-7.470;2023-03-25T06:24:24;98983.03;;;7.13;100.00
64253;BME280;50592;52.958;-7.470;2023-03-25T06:26:51;98986.97;;;7.09;100.00
64253;BME280;50592;52.958;-7.470;2023-03-25T06:29:21;98992.38;;;7.07;100.00
64253;BME280;50592;52.958;-7.470;2023-03-25T06:31:51;98999.25;;;7.08;100.00
64253;BME280;50592;52.958;-7.470;2023-03-25T06:34:20;98996.31;;;7.11;100.00
64253;BME280;50592;52.958;-7.470;2023-03-25T06:36:50;99001.56;;;7.11;100.00
64253;BME280;50592;52.958;-7.470;2023-03-25T06:39:21;98997.47;;;7.09;100.00
64253;BME280;50592;52.958;-7.470;2023-03-25T06:41:51;98997.63;;;7.07;100.00
64253;BME280;50592;52.958;-7.470;2023-03-25T06:44:28;99005.00;;;7.03;100.00
64253;BME280;50592;52.958;-7.470;2023-03-25T06:47:17;99008.44;;;7.04;100.00
64253;BME280;50592;52.958;-7.470;2023-03-25T06:49:48;99005.97;;;7.02;100.00
64253;BME280;50592;52.958;-7.470;2023-03-25T06:52:18;99012.56;;;7.06;100.00
64253;BME280;50592;52.958;-7.470;2023-03-25T06:54:48;99010.25;;;7.03;100.00
64253;BME280;50592;52.958;-7.470;2023-03-25T06:57:18;99018.97;;;7.04;100.00
64253;BME280;50592;52.958;-7.470;2023-03-25T06:59:45;99022.38;;;7.04;100.00
64253;BME280;50592;52.958;-7.470;2023-03-25T07:02:14;99030.78;;;7.08;100.00
64253;BME280;50592;52.958;-7.470;2023-03-25T07:04:41;99042.28;;;7.07;100.00
64253;BME280;50592;52.958;-7.470;2023-03-25T07:07:10;99037.53;;;7.11;100.00
64253;BME280;50592;52.958;-7.470;2023-03-25T07:09:37;99042.78;;;7.11;100.00
64253;BME280;50592;52.958;-7.470;2023-03-25T07:12:06;99040.53;;;7.16;100.00
64253;BME280;50592;52.958;-7.470;2023-03-25T07:14:32;99044.63;;;7.18;100.00
64253;BME280;50592;52.958;-7.470;2023-03-25T07:17:01;99043.53;;;7.29;100.00
64253;BME280;50592;52.958;-7.470;2023-03-25T07:19:28;99043.88;;;7.35;100.00
64253;BME280;50592;52.958;-7.470;2023-03-25T07:21:57;99045.72;;;7.42;100.00
64253;BME280;50592;52.958;-7.470;2023-03-25T07:24:24;99045.22;;;7.47;100.00
64253;BME280;50592;52.958;-7.470;2023-03-25T07:26:52;99042.31;;;7.59;100.00
64253;BME280;50592;52.958;-7.470;2023-03-25T07:29:24;99045.97;;;7.66;100.00
64253;BME280;50592;52.958;-7.470;2023-03-25T07:31:53;99046.13;;;7.73;100.00
64253;BME280;50592;52.958;-7.470;2023-03-25T07:34:23;99048.59;;;7.74;100.00
64253;BME280;50592;52.958;-7.470;2023-03-25T07:36:53;99066.06;;;7.75;100.00
64253;BME280;50592;52.958;-7.470;2023-03-25T07:39:23;99060.63;;;7.77;100.00
64253;BME280;50592;52.958;-7.470;2023-03-25T07:41:53;99063.75;;;7.72;100.00
64253;BME280;50592;52.958;-7.470;2023-03-25T07:44:32;99065.03;;;7.68;100.00
64253;BME280;50592;52.958;-7.470;2023-03-25T07:46:58;99082.63;;;7.67;100.00
64253;BME280;50592;52.958;-7.470;2023-03-25T07:49:29;99083.94;;;7.72;100.00
64253;BME280;50592;52.958;-7.470;2023-03-25T07:51:59;99077.88;;;7.79;100.00
64253;BME280;50592;52.958;-7.470;2023-03-25T07:54:29;99087.47;;;7.97;100.00
64253;BME280;50592;52.958;-7.470;2023-03-25T07:56:56;99084.56;;;8.17;100.00
64253;BME280;50592;52.958;-7.470;2023-03-25T07:59:26;99084.56;;;8.34;100.00
64253;BME280;50592;52.958;-7.470;2023-03-25T08:01:56;99091.66;;;8.41;100.00
64253;BME280;50592;52.958;-7.470;2023-03-25T08:04:22;99092.50;;;8.50;100.00
64253;BME280;50592;52.958;-7.470;2023-03-25T08:06:51;99092.00;;;8.63;100.00
64253;BME280;50592;52.958;-7.470;2023-03-25T08:09:18;99098.44;;;8.69;100.00
64253;BME280;50592;52.958;-7.470;2023-03-25T08:11:47;99101.06;;;8.77;100.00
64253;BME280;50592;52.958;-7.470;2023-03-25T08:14:14;99105.00;;;8.73;100.00
64253;BME280;50592;52.958;-7.470;2023-03-25T08:16:43;99108.81;;;8.79;100.00
64253;BME280;50592;52.958;-7.470;2023-03-25T08:19:09;99116.88;;;8.77;100.00
64253;BME280;50592;52.958;-7.470;2023-03-25T08:21:38;99119.81;;;8.83;100.00
64253;BME280;50592;52.958;-7.470;2023-03-25T08:24:05;99115.56;;;8.81;100.00
64253;BME280;50592;52.958;-7.470;2023-03-25T08:26:35;99114.22;;;8.86;100.00
64253;BME280;50592;52.958;-7.470;2023-03-25T08:29:03;99120.16;;;8.88;100.00
64253;BME280;50592;52.958;-7.470;2023-03-25T08:31:32;99118.34;;;8.88;100.00
64253;BME280;50592;52.958;-7.470;2023-03-25T08:34:00;99129.19;;;8.93;100.00
64253;BME280;50592;52.958;-7.470;2023-03-25T08:36:30;99127.88;;;8.98;100.00
64253;BME280;50592;52.958;-7.470;2023-03-25T08:38:57;99128.38;;;9.01;100.00
64253;BME280;50592;52.958;-7.470;2023-03-25T08:41:25;99129.53;;;9.07;100.00
64253;BME280;50592;52.958;-7.470;2023-03-25T08:43:52;99134.47;;;9.10;100.00
64253;BME280;50592;52.958;-7.470;2023-03-25T08:46:22;99134.63;;;9.17;100.00
64253;BME280;50592;52.958;-7.470;2023-03-25T08:48:52;99141.84;;;9.23;100.00
64253;BME280;50592;52.958;-7.470;2023-03-25T08:51:19;99144.66;;;9.22;100.00
64253;BME280;50592;52.958;-7.470;2023-03-25T08:53:48;99138.72;;;9.28;100.00
64253;BME280;50592;52.958;-7.470;2023-03-25T08:56:15;99137.03;;;9.35;100.00
64253;BME280;50592;52.958;-7.470;2023-03-25T08:58:44;99143.94;;;9.45;100.00
64253;BME280;50592;52.958;-7.470;2023-03-25T09:01:11;99133.88;;;9.48;100.00
64253;BME280;50592;52.958;-7.470;2023-03-25T09:03:39;99143.09;;;9.52;100.00
64253;BME280;50592;52.958;-7.470;2023-03-25T09:06:08;99135.66;;;9.56;100.00
64253;BME280;50592;52.958;-7.470;2023-03-25T09:08:37;99132.50;;;9.61;100.00
64253;BME280;50592;52.958;-7.470;2023-03-25T09:11:04;99139.41;;;9.70;100.00
64253;BME280;50592;52.958;-7.470;2023-03-25T09:13:33;99141.19;;;9.78;100.00
64253;BME280;50592;52.958;-7.470;2023-03-25T09:16:04;99138.06;;;9.74;100.00
64253;BME280;50592;52.958;-7.470;2023-03-25T09:18:34;99136.75;;;9.70;100.00
64253;BME280;50592;52.958;-7.470;2023-03-25T09:21:02;99146.84;;;9.66;100.00
64253;BME280;50592;52.958;-7.470;2023-03-25T09:23:33;99157.56;;;9.65;100.00
64253;BME280;50592;52.958;-7.470;2023-03-25T09:26:01;99153.63;;;9.61;100.00
64253;BME280;50592;52.958;-7.470;2023-03-25T09:28:32;99152.66;;;9.53;100.00
64253;BME280;50592;52.958;-7.470;2023-03-25T09:31:02;99160.56;;;9.53;100.00
64253;BME280;50592;52.958;-7.470;2023-03-25T09:33:34;99157.09;;;9.61;100.00
64253;BME280;50592;52.958;-7.470;2023-03-25T09:36:04;99160.03;;;9.66;100.00
64253;BME280;50592;52.958;-7.470;2023-03-25T09:38:35;99162.47;;;9.76;100.00
64253;BME280;50592;52.958;-7.470;2023-03-25T09:46:38;99173.34;;;9.82;100.00
64253;BME280;50592;52.958;-7.470;2023-03-25T09:49:17;99159.03;;;9.76;100.00
64253;BME280;50592;52.958;-7.470;2023-03-25T09:51:50;99170.78;;;9.65;100.00
64253;BME280;50592;52.958;-7.470;2023-03-25T09:54:24;99175.53;;;9.70;100.00
64253;BME280;50592;52.958;-7.470;2023-03-25T09:57:01;99183.75;;;9.75;100.00
64253;BME280;50592;52.958;-7.470;2023-03-25T09:59:51;99177.41;;;9.92;100.00
64253;BME280;50592;52.958;-7.470;2023-03-25T10:02:45;99177.41;;;9.92;100.00
64253;BME280;50592;52.958;-7.470;2023-03-25T10:13:54;99184.91;;;9.72;100.00
64253;BME280;50592;52.958;-7.470;2023-03-25T10:19:36;99188.22;;;9.74;100.00
64253;BME280;50592;52.958;-7.470;2023-03-25T10:22:27;99190.78;;;9.91;100.00
64253;BME280;50592;52.958;-7.470;2023-03-25T10:25:01;99193.88;;;10.03;100.00
64253;BME280;50592;52.958;-7.470;2023-03-25T10:27:43;99191.66;;;10.15;100.00
64253;BME280;50592;52.958;-7.470;2023-03-25T10:30:18;99187.34;;;10.22;100.00
64253;BME280;50592;52.958;-7.470;2023-03-25T10:32:57;99186.94;;;10.34;100.00
64253;BME280;50592;52.958;-7.470;2023-03-25T10:35:35;99182.97;;;10.46;100.00
64253;BME280;50592;52.958;-7.470;2023-03-25T10:38:18;99168.22;;;10.43;100.00
64253;BME280;50592;52.958;-7.470;2023-03-25T10:41:10;99188.47;;;10.28;100.00
64253;BME280;50592;52.958;-7.470;2023-03-25T10:43:43;99171.34;;;10.56;100.00
64253;BME280;50592;52.958;-7.470;2023-03-25T10:46:33;99192.59;;;10.86;100.00
64253;BME280;50592;52.958;-7.470;2023-03-25T10:49:08;99187.16;;;11.02;100.00
64253;BME280;50592;52.958;-7.470;2023-03-25T10:51:40;99187.81;;;11.04;100.00
64253;BME280;50592;52.958;-7.470;2023-03-25T10:54:11;99194.34;;;10.94;100.00
64253;BME280;50592;52.958;-7.470;2023-03-25T10:56:46;99188.28;;;10.85;100.00
64253;BME280;50592;52.958;-7.470;2023-03-25T11:02:21;99189.00;;;10.78;100.00
64253;BME280;50592;52.958;-7.470;2023-03-25T11:05:00;99185.13;;;10.66;100.00
64253;BME280;50592;52.958;-7.470;2023-03-25T11:07:35;99190.75;;;10.63;100.00
64253;BME280;50592;52.958;-7.470;2023-03-25T11:10:28;99185.31;;;10.64;100.00
64253;BME280;50592;52.958;-7.470;2023-03-25T11:13:01;99184.00;;;10.84;100.00
64253;BME280;50592;52.958;-7.470;2023-03-25T11:15:36;99192.19;;;11.12;100.00
64253;BME280;50592;52.958;-7.470;2023-03-25T11:20:48;99185.59;;;11.47;100.00
64253;BME280;50592;52.958;-7.470;2023-03-25T11:23:21;99181.88;;;11.56;100.00
64253;BME280;50592;52.958;-7.470;2023-03-25T11:25:54;99185.34;;;11.72;100.00
64253;BME280;50592;52.958;-7.470;2023-03-25T11:28:54;99192.81;;;11.68;100.00
64253;BME280;50592;52.958;-7.470;2023-03-25T11:31:26;99187.34;;;11.54;100.00
64253;BME280;50592;52.958;-7.470;2023-03-25T11:34:22;99201.75;;;11.37;100.00
64253;BME280;50592;52.958;-7.470;2023-03-25T11:37:03;99195.50;;;11.29;100.00
64253;BME280;50592;52.958;-7.470;2023-03-25T11:39:38;99195.97;;;11.33;100.00
64253;BME280;50592;52.958;-7.470;2023-03-25T11:42:57;99182.13;;;11.46;100.00
64253;BME280;50592;52.958;-7.470;2023-03-25T11:45:03;99189.63;;;11.73;100.00
64253;BME280;50592;52.958;-7.470;2023-03-25T11:47:35;99194.38;;;11.93;100.00
64253;BME280;50592;52.958;-7.470;2023-03-25T11:50:04;99177.00;;;12.05;100.00
64253;BME280;50592;52.958;-7.470;2023-03-25T11:52:41;99185.13;;;12.03;100.00
64253;BME280;50592;52.958;-7.470;2023-03-25T11:55:42;99181.00;;;12.16;100.00
64253;BME280;50592;52.958;-7.470;2023-03-25T11:58:21;99178.50;;;12.30;100.00
64253;BME280;50592;52.958;-7.470;2023-03-25T12:01:03;99184.78;;;12.44;100.00
64253;BME280;50592;52.958;-7.470;2023-03-25T12:03:34;99180.19;;;12.52;100.00
64253;BME280;50592;52.958;-7.470;2023-03-25T12:17:27;99172.28;;;12.81;100.00
64253;BME280;50592;52.958;-7.470;2023-03-25T12:32:34;99171.69;;;13.08;100.00
64253;BME280;50592;52.958;-7.470;2023-03-25T12:35:03;99169.94;;;12.93;100.00
64253;BME280;50592;52.958;-7.470;2023-03-25T12:37:40;99161.63;;;12.96;100.00
64253;BME280;50592;52.958;-7.470;2023-03-25T12:40:49;99158.41;;;13.08;100.00
64253;BME280;50592;52.958;-7.470;2023-03-25T12:44:29;99158.84;;;13.11;100.00
64253;BME280;50592;52.958;-7.470;2023-03-25T12:49:36;99160.78;;;13.24;100.00
64253;BME280;50592;52.958;-7.470;2023-03-25T13:01:06;99149.22;;;13.03;100.00
64253;BME280;50592;52.958;-7.470;2023-03-25T13:04:04;99150.22;;;13.02;100.00
64253;BME280;50592;52.958;-7.470;2023-03-25T13:09:31;99152.63;;;12.97;100.00
64253;BME280;50592;52.958;-7.470;2023-03-25T13:14:37;99149.72;;;12.92;100.00
64253;BME280;50592;52.958;-7.470;2023-03-25T13:17:11;99147.97;;;12.77;100.00
64253;BME280;50592;52.958;-7.470;2023-03-25T13:19:43;99142.19;;;12.67;100.00
64253;BME280;50592;52.958;-7.470;2023-03-25T13:22:23;99149.81;;;12.77;100.00
64253;BME280;50592;52.958;-7.470;2023-03-25T13:25:06;99137.34;;;12.71;100.00
64253;BME280;50592;52.958;-7.470;2023-03-25T13:27:39;99137.19;;;12.79;100.00
64253;BME280;50592;52.958;-7.470;2023-03-25T13:30:18;99143.50;;;13.07;100.00
64253;BME280;50592;52.958;-7.470;2023-03-25T13:32:53;99131.44;;;13.33;100.00
64253;BME280;50592;52.958;-7.470;2023-03-25T13:35:48;99131.19;;;13.56;100.00
64253;BME280;50592;52.958;-7.470;2023-03-25T13:38:33;99131.91;;;13.43;100.00
64253;BME280;50592;52.958;-7.470;2023-03-25T13:41:33;99130.97;;;13.22;100.00
64253;BME280;50592;52.958;-7.470;2023-03-25T13:44:37;99133.28;;;13.03;100.00
64253;BME280;50592;52.958;-7.470;2023-03-25T13:49:46;99124.06;;;13.28;100.00
64253;BME280;50592;52.958;-7.470;2023-03-25T13:52:18;99120.50;;;13.49;100.00
64253;BME280;50592;52.958;-7.470;2023-03-25T13:54:56;99122.88;;;13.73;100.00
64253;BME280;50592;52.958;-7.470;2023-03-25T14:00:09;99119.34;;;13.59;100.00
64253;BME280;50592;52.958;-7.470;2023-03-25T14:06:00;99112.50;;;13.07;100.00
64253;BME280;50592;52.958;-7.470;2023-03-25T14:11:41;99116.28;;;12.91;100.00
64253;BME280;50592;52.958;-7.470;2023-03-25T14:14:18;99102.25;;;12.97;100.00
64253;BME280;50592;52.958;-7.470;2023-03-25T14:16:52;99098.16;;;12.95;100.00
64253;BME280;50592;52.958;-7.470;2023-03-25T14:19:29;99099.78;;;12.96;100.00
64253;BME280;50592;52.958;-7.470;2023-03-25T14:22:15;99101.47;;;13.03;100.00
64253;BME280;50592;52.958;-7.470;2023-03-25T14:24:46;99095.03;;;13.20;100.00
64253;BME280;50592;52.958;-7.470;2023-03-25T14:30:25;99081.59;;;13.63;100.00
64253;BME280;50592;52.958;-7.470;2023-03-25T14:32:56;99076.78;;;13.87;100.00
64253;BME280;50592;52.958;-7.470;2023-03-25T14:51:18;99063.59;;;14.48;100.00
64253;BME280;50592;52.958;-7.470;2023-03-25T14:54:16;99058.66;;;14.59;100.00
64253;BME280;50592;52.958;-7.470;2023-03-25T14:56:53;99059.91;;;14.70;100.00
64253;BME280;50592;52.958;-7.470;2023-03-25T14:59:28;99052.53;;;14.65;100.00
64253;BME280;50592;52.958;-7.470;2023-03-25T15:02:03;99051.72;;;14.51;100.00
64253;BME280;50592;52.958;-7.470;2023-03-25T15:04:35;99059.06;;;14.35;100.00
64253;BME280;50592;52.958;-7.470;2023-03-25T15:07:14;99061.31;;;14.18;100.00
64253;BME280;50592;52.958;-7.470;2023-03-25T15:09:52;99057.78;;;13.97;100.00
64253;BME280;50592;52.958;-7.470;2023-03-25T15:12:26;99052.88;;;13.81;100.00
64253;BME280;50592;52.958;-7.470;2023-03-25T15:14:55;99056.69;;;13.71;100.00
64253;BME280;50592;52.958;-7.470;2023-03-25T15:17:44;99045.44;;;13.62;100.00
64253;BME280;50592;52.958;-7.470;2023-03-25T15:20:32;99047.66;;;13.59;100.00
64253;BME280;50592;52.958;-7.470;2023-03-25T15:25:46;99034.00;;;13.62;100.00
64253;BME280;50592;52.958;-7.470;2023-03-25T15:31:03;99030.94;;;13.65;100.00
64253;BME280;50592;52.958;-7.470;2023-03-25T15:44:51;99018.56;;;13.99;100.00
64253;BME280;50592;52.958;-7.470;2023-03-25T15:47:35;99017.53;;;13.94;100.00
64253;BME280;50592;52.958;-7.470;2023-03-25T15:55:58;98997.38;;;13.44;100.00